Time;durP1;ratioP1;P1;durP2;ratioP2;P2;SDS_P1;SDS_P2;PMS_P1;PMS_P2;Temp;Humidity;BMP_temperature;BMP_pressure;BME280_temperature;BME280_humidity;BME280_pressure;Samples;Min_cycle;Max_cycle;Signal;HPM_P1;HPM_P2
2023/12/22 00:01:26;;;;;;;3.73;1.40;;;5.50;99.90;;;;;;5114910;28;20480;-61
2023/12/22 00:03:53;;;;;;;9.50;1.50;;;5.50;99.90;;;;;;5113976;28;20449;-63
2023/12/22 00:06:20;;;;;;;2.30;1.63;;;5.40;99.90;;;;;;5113325;28;20475;-60
2023/12/22 00:08:47;;;;;;;1.67;1.20;;;5.50;99.90;;;;;;5113478;28;20470;-62
2023/12/22 00:11:15;;;;;;;5.83;1.83;;;5.40;99.90;;;;;;5113993;28;20433;-63
2023/12/22 00:13:42;;;;;;;3.43;0.90;;;5.30;99.90;;;;;;5114213;28;20423;-63
2023/12/22 00:16:10;;;;;;;5.20;2.53;;;5.20;99.90;;;;;;5114477;28;20430;-61
2023/12/22 00:18:37;;;;;;;6.23;2.63;;;5.10;99.90;;;;;;5115233;28;20494;-62
2023/12/22 00:21:04;;;;;;;4.57;1.50;;;5.10;99.90;;;;;;5114438;28;20479;-64
2023/12/22 00:23:35;;;;;;;4.80;0.97;;;5.00;99.90;;;;;;5115132;28;20453;-63
2023/12/22 00:26:02;;;;;;;3.00;1.33;;;5.10;99.90;;;;;;5112806;28;20480;-62
2023/12/22 00:28:31;;;;;;;3.80;1.20;;;5.10;99.90;;;;;;5115511;28;20445;-63
2023/12/22 00:30:58;;;;;;;6.63;2.20;;;5.10;99.90;;;;;;5112402;28;20465;-64
2023/12/22 00:33:25;;;;;;;3.10;1.30;;;5.10;99.90;;;;;;5115759;28;20448;-63
2023/12/22 00:35:52;;;;;;;6.90;1.53;;;5.10;99.90;;;;;;5109685;28;20468;-62
2023/12/22 00:38:19;;;;;;;5.80;1.70;;;5.20;99.90;;;;;;5104023;28;20471;-64
2023/12/22 00:40:45;;;;;;;5.53;2.30;;;5.20;99.90;;;;;;5100931;28;20945;-61
2023/12/22 00:43:12;;;;;;;12.27;2.40;;;5.30;99.90;;;;;;5100443;28;20473;-63
2023/12/22 00:45:41;;;;;;;2.20;1.27;;;5.20;99.90;;;;;;5100854;28;20464;-62
2023/12/22 00:48:08;;;;;;;3.53;1.10;;;5.30;99.90;;;;;;5098204;28;20468;-65
2023/12/22 00:50:34;;;;;;;9.63;1.97;;;5.30;99.90;;;;;;5097422;28;20467;-64
2023/12/22 00:53:01;;;;;;;11.47;2.30;;;5.30;99.90;;;;;;5096408;28;20833;-64
2023/12/22 00:55:28;;;;;;;5.73;2.00;;;5.30;99.90;;;;;;5095377;28;20452;-62
2023/12/22 00:57:55;;;;;;;1.27;0.77;;;5.30;99.90;;;;;;5095319;28;20865;-64
2023/12/22 01:00:22;;;;;;;3.03;1.40;;;5.30;99.90;;;;;;5095199;28;20563;-62
2023/12/22 01:02:50;;;;;;;8.47;1.37;;;5.30;99.90;;;;;;5098142;28;20462;-64
2023/12/22 01:05:17;;;;;;;3.77;1.50;;;5.20;99.90;;;;;;5100837;28;20543;-64
2023/12/22 01:07:44;;;;;;;7.60;1.10;;;5.20;99.90;;;;;;5099736;28;20832;-61
2023/12/22 01:10:11;;;;;;;5.00;1.67;;;5.20;99.90;;;;;;5098838;28;21018;-63
2023/12/22 01:12:38;;;;;;;2.70;1.20;;;5.10;99.90;;;;;;5097183;28;20532;-62
2023/12/22 01:15:05;;;;;;;3.50;2.00;;;5.10;99.90;;;;;;5099467;28;20530;-63
2023/12/22 01:17:32;;;;;;;5.80;1.60;;;5.00;99.90;;;;;;5099922;28;20493;-60
2023/12/22 01:20:00;;;;;;;2.97;1.60;;;5.00;99.90;;;;;;5105138;28;20570;-62
2023/12/22 01:22:27;;;;;;;2.23;1.10;;;5.00;99.90;;;;;;5104228;28;20469;-64
2023/12/22 01:24:53;;;;;;;1.10;0.80;;;5.00;99.90;;;;;;5103122;28;20469;-63
2023/12/22 01:27:20;;;;;;;3.17;1.53;;;5.00;99.90;;;;;;5101058;28;20968;-62
2023/12/22 01:29:47;;;;;;;9.53;2.23;;;5.00;99.90;;;;;;5101472;28;20925;-63
2023/12/22 01:32:14;;;;;;;11.83;2.17;;;5.00;99.90;;;;;;5101036;28;20537;-62
2023/12/22 01:34:41;;;;;;;8.83;1.47;;;4.90;99.90;;;;;;5102394;28;20447;-62
2023/12/22 01:37:10;;;;;;;7.93;2.70;;;4.90;99.90;;;;;;5103874;28;20739;-63
2023/12/22 01:39:37;;;;;;;3.00;1.53;;;4.90;99.90;;;;;;5104464;28;20465;-63
2023/12/22 01:42:04;;;;;;;3.20;1.47;;;4.90;99.90;;;;;;5111005;28;20498;-62
2023/12/22 01:44:31;;;;;;;1.20;1.00;;;4.90;99.90;;;;;;5112683;28;20487;-63
2023/12/22 01:46:59;;;;;;;6.30;2.17;;;4.90;99.90;;;;;;5113951;28;20466;-63
2023/12/22 01:49:26;;;;;;;3.00;1.03;;;4.90;99.90;;;;;;5112652;28;21018;-63
2023/12/22 01:51:57;;;;;;;6.90;2.80;;;4.90;99.90;;;;;;5117775;28;20466;-64
2023/12/22 01:54:26;;;;;;;2.77;1.30;;;4.90;99.90;;;;;;5113559;28;20494;-63
2023/12/22 01:56:53;;;;;;;4.40;1.33;;;4.80;99.90;;;;;;5103808;28;20535;-61
2023/12/22 01:59:19;;;;;;;5.50;1.70;;;4.80;99.90;;;;;;5104312;28;20456;-64
2023/12/22 02:01:46;;;;;;;1.10;1.00;;;4.80;99.90;;;;;;5100309;28;20480;-64
2023/12/22 02:04:15;;;;;;;3.90;1.60;;;4.80;99.90;;;;;;5099589;28;20922;-63
2023/12/22 02:06:43;;;;;;;1.67;1.20;;;4.80;99.90;;;;;;5101794;28;20563;-63
2023/12/22 02:09:10;;;;;;;2.90;1.80;;;4.80;99.90;;;;;;5099811;28;20513;-64
2023/12/22 02:11:40;;;;;;;11.20;1.70;;;4.80;99.90;;;;;;5099867;28;20499;-62
2023/12/22 02:14:10;;;;;;;11.10;1.90;;;4.70;99.90;;;;;;5101603;28;20438;-63
2023/12/22 02:16:43;;;;;;;8.43;1.07;;;4.70;99.90;;;;;;5102814;28;20556;-63
2023/12/22 02:19:32;;;;;;;1.13;0.73;;;4.80;99.90;;;;;;5103202;28;20460;-63
2023/12/22 02:22:03;;;;;;;4.03;1.50;;;4.80;99.90;;;;;;5103878;28;20991;-63
2023/12/22 02:24:31;;;;;;;6.87;1.80;;;5.10;99.90;;;;;;5103592;28;20444;-63
2023/12/22 02:27:05;;;;;;;13.00;1.77;;;4.80;99.90;;;;;;5103659;28;20448;-64
2023/12/22 02:29:37;;;;;;;2.57;1.20;;;4.80;99.90;;;;;;5102441;28;20472;-64
2023/12/22 02:32:08;;;;;;;1.93;0.93;;;4.80;99.90;;;;;;5100029;28;20428;-64
2023/12/22 02:34:37;;;;;;;9.63;1.27;;;4.80;99.90;;;;;;5099392;28;20491;-62
2023/12/22 02:37:07;;;;;;;3.97;1.53;;;4.80;99.90;;;;;;5099577;28;20455;-61
2023/12/22 02:39:35;;;;;;;5.00;1.40;;;4.80;99.90;;;;;;5096089;28;20960;-62
2023/12/22 02:42:04;;;;;;;1.70;1.00;;;4.80;99.90;;;;;;5096087;28;20983;-64
2023/12/22 02:44:32;;;;;;;1.37;0.97;;;4.80;99.90;;;;;;5096286;28;20472;-64
2023/12/22 02:46:58;;;;;;;2.70;0.90;;;4.70;99.90;;;;;;5096211;28;20516;-64
2023/12/22 02:49:25;;;;;;;4.80;1.40;;;4.70;99.90;;;;;;5096312;28;20806;-64
2023/12/22 02:51:52;;;;;;;3.30;0.90;;;4.70;99.90;;;;;;5096016;28;20985;-63
2023/12/22 02:54:19;;;;;;;3.90;0.80;;;4.70;99.90;;;;;;5116130;28;20439;-63
2023/12/22 02:56:48;;;;;;;1.20;1.00;;;4.60;99.90;;;;;;5117725;28;20482;-62
2023/12/22 02:59:15;;;;;;;1.00;0.67;;;4.60;99.90;;;;;;5118093;28;20452;-63
2023/12/22 03:01:42;;;;;;;1.40;1.30;;;4.70;99.90;;;;;;5119098;28;20479;-61
2023/12/22 03:04:09;;;;;;;5.00;1.30;;;4.60;99.90;;;;;;5120193;28;20416;-60
2023/12/22 03:06:36;;;;;;;2.57;1.57;;;4.60;99.90;;;;;;5120012;28;20440;-59
2023/12/22 03:09:03;;;;;;;5.40;1.10;;;4.60;99.90;;;;;;5119994;28;20499;-61
2023/12/22 03:11:30;;;;;;;3.67;1.77;;;4.60;99.90;;;;;;5119990;28;20409;-61
2023/12/22 03:13:58;;;;;;;5.37;1.40;;;4.60;99.90;;;;;;5119859;28;20445;-59
2023/12/22 03:16:25;;;;;;;4.10;1.30;;;4.60;99.90;;;;;;5119948;28;20413;-61
2023/12/22 03:18:52;;;;;;;1.80;0.80;;;4.60;99.90;;;;;;5119912;28;20456;-61
2023/12/22 03:21:21;;;;;;;2.80;0.90;;;4.60;99.90;;;;;;5119709;28;20472;-57
2023/12/22 03:23:48;;;;;;;1.30;0.90;;;4.60;99.90;;;;;;5119455;28;20429;-60
2023/12/22 03:26:15;;;;;;;4.87;1.43;;;4.50;99.90;;;;;;5119733;28;20397;-59
2023/12/22 03:28:42;;;;;;;10.60;1.70;;;4.50;99.90;;;;;;5119399;28;20425;-58
2023/12/22 03:31:10;;;;;;;1.50;0.80;;;4.50;99.90;;;;;;5119555;28;20440;-58
2023/12/22 03:33:37;;;;;;;2.90;0.93;;;4.50;99.90;;;;;;5119495;28;20416;-61
2023/12/22 03:36:06;;;;;;;2.57;1.17;;;4.50;99.90;;;;;;5119178;28;20458;-61
2023/12/22 03:38:33;;;;;;;8.93;2.73;;;4.50;99.90;;;;;;5119394;28;20415;-60
2023/12/22 03:41:00;;;;;;;2.70;0.80;;;;;;;;;;5119034;28;20509;-61
2023/12/22 03:43:28;;;;;;;2.20;1.23;;;4.50;99.90;;;;;;5118408;28;20435;-59
2023/12/22 03:45:55;;;;;;;1.60;1.20;;;4.50;99.90;;;;;;5119284;28;20418;-59
2023/12/22 03:48:23;;;;;;;1.10;0.70;;;4.50;99.90;;;;;;5119118;28;20416;-57
2023/12/22 03:50:50;;;;;;;2.87;1.23;;;4.50;99.90;;;;;;5119152;28;20448;-61
2023/12/22 03:53:17;;;;;;;2.03;1.00;;;4.50;99.90;;;;;;5118264;28;20440;-60
2023/12/22 03:55:43;;;;;;;0.80;0.60;;;4.50;99.90;;;;;;5118680;28;20491;-61
2023/12/22 03:58:10;;;;;;;2.23;0.73;;;4.50;99.90;;;;;;5118937;28;20432;-61
2023/12/22 04:00:37;;;;;;;1.27;1.13;;;4.50;99.90;;;;;;5118882;28;20413;-58
2023/12/22 04:03:04;;;;;;;2.20;0.90;;;4.50;99.90;;;;;;5118863;28;20475;-60
2023/12/22 04:05:35;;;;;;;1.30;0.90;;;4.50;99.90;;;;;;5119076;28;20410;-57
2023/12/22 04:08:02;;;;;;;2.30;0.80;;;5.00;99.90;;;;;;5118953;28;20421;-62
2023/12/22 04:10:29;;;;;;;2.43;0.87;;;4.50;99.90;;;;;;5118897;28;20424;-62
2023/12/22 04:12:56;;;;;;;1.50;0.70;;;4.50;99.90;;;;;;5118802;28;20428;-62
2023/12/22 04:15:23;;;;;;;1.60;0.90;;;4.50;99.90;;;;;;5118708;28;20448;-59
2023/12/22 04:17:50;;;;;;;0.93;0.60;;;4.50;99.90;;;;;;5118015;28;20441;-60
2023/12/22 04:20:20;;;;;;;2.90;0.70;;;4.50;99.90;;;;;;5116743;28;20536;-58
2023/12/22 04:22:48;;;;;;;1.17;1.07;;;4.40;99.90;;;;;;5117420;28;20468;-61
2023/12/22 04:25:15;;;;;;;0.80;0.50;;;4.30;99.90;;;;;;5116899;28;20423;-62
2023/12/22 04:27:45;;;;;;;2.50;1.20;;;4.20;99.90;;;;;;5116673;28;20440;-59
2023/12/22 04:30:13;;;;;;;1.43;0.70;;;4.20;99.90;;;;;;5116810;28;20514;-60
2023/12/22 04:32:40;;;;;;;6.87;1.33;;;4.10;99.90;;;;;;5115673;28;20444;-62
2023/12/22 04:35:07;;;;;;;5.90;2.63;;;4.00;99.90;;;;;;5115382;28;20468;-63
2023/12/22 04:37:34;;;;;;;3.33;1.00;;;4.00;99.90;;;;;;5114583;28;20461;-65
2023/12/22 04:40:03;;;;;;;1.70;0.80;;;4.00;99.90;;;;;;5114429;28;20474;-63
2023/12/22 04:42:30;;;;;;;2.70;1.00;;;3.90;99.90;;;;;;5113877;28;20491;-62
2023/12/22 04:44:57;;;;;;;1.27;0.70;;;3.90;99.90;;;;;;5114894;28;20433;-60
2023/12/22 04:47:25;;;;;;;1.83;1.10;;;3.90;99.90;;;;;;5115315;28;20432;-62
2023/12/22 04:49:52;;;;;;;8.70;1.17;;;3.90;99.90;;;;;;5115460;28;20448;-62
2023/12/22 04:52:19;;;;;;;2.07;0.83;;;3.90;99.90;;;;;;5115729;28;20441;-62
2023/12/22 04:54:47;;;;;;;1.37;0.90;;;4.00;99.90;;;;;;5118496;28;20428;-62
2023/12/22 04:57:18;;;;;;;2.57;0.90;;;4.00;99.90;;;;;;5119102;28;20421;-63
2023/12/22 04:59:45;;;;;;;3.00;0.70;;;3.90;99.90;;;;;;5119877;28;20494;-60
2023/12/22 05:02:12;;;;;;;3.30;1.13;;;4.00;99.90;;;;;;5118903;28;20499;-62
2023/12/22 05:04:39;;;;;;;1.27;0.70;;;4.00;99.90;;;;;;5117397;28;20472;-62
2023/12/22 05:07:06;;;;;;;3.93;0.87;;;4.00;99.90;;;;;;5116199;28;20439;-63
2023/12/22 05:09:34;;;;;;;0.90;0.60;;;3.90;99.90;;;;;;5116138;28;20461;-62
2023/12/22 05:12:01;;;;;;;1.10;0.80;;;3.80;99.90;;;;;;5116220;28;20470;-63
2023/12/22 05:14:29;;;;;;;11.67;1.23;;;3.60;99.90;;;;;;5115903;28;20444;-63
2023/12/22 05:16:56;;;;;;;1.13;0.90;;;3.60;99.90;;;;;;5116134;28;20480;-62
2023/12/22 05:19:23;;;;;;;1.50;0.70;;;3.50;99.90;;;;;;5115897;28;20460;-64
2023/12/22 05:21:52;;;;;;;2.00;0.77;;;3.40;99.90;;;;;;5116728;28;20559;-61
2023/12/22 05:24:21;;;;;;;1.83;0.93;;;3.30;99.90;;;;;;5115658;28;20451;-63
2023/12/22 05:26:48;;;;;;;0.90;0.67;;;3.30;99.90;;;;;;5115428;28;20538;-63
2023/12/22 05:29:15;;;;;;;0.80;0.60;;;3.30;99.90;;;;;;5117047;28;20851;-62
2023/12/22 05:31:43;;;;;;;1.10;1.00;;;3.30;99.90;;;;;;5116383;28;20440;-62
2023/12/22 05:34:10;;;;;;;2.07;1.03;;;3.30;99.90;;;;;;5115760;28;20440;-61
2023/12/22 05:36:37;;;;;;;0.90;0.67;;;3.30;99.90;;;;;;5116367;28;20487;-63
2023/12/22 05:39:04;;;;;;;1.57;1.37;;;3.30;99.90;;;;;;5115835;28;20464;-63
2023/12/22 05:41:31;;;;;;;4.10;0.80;;;3.30;99.90;;;;;;5116372;28;20503;-61
2023/12/22 05:43:58;;;;;;;1.50;0.90;;;3.30;99.90;;;;;;5116205;28;20474;-62
2023/12/22 05:46:25;;;;;;;1.50;0.70;;;3.30;99.90;;;;;;5116055;28;20444;-63
2023/12/22 05:48:53;;;;;;;1.00;0.90;;;3.30;99.90;;;;;;5115028;28;20451;-61
2023/12/22 05:51:19;;;;;;;0.90;0.80;;;3.30;99.90;;;;;;5115197;28;20480;-64
2023/12/22 05:53:48;;;;;;;1.17;0.83;;;3.30;99.90;;;;;;5115689;28;20425;-62
2023/12/22 05:56:19;;;;;;;1.50;1.33;;;3.30;99.90;;;;;;5114112;28;20556;-63
2023/12/22 05:58:46;;;;;;;7.53;1.70;;;3.30;99.90;;;;;;5113502;28;20448;-63
2023/12/22 06:01:16;;;;;;;13.67;1.73;;;3.40;99.90;;;;;;5115284;28;20501;-62
2023/12/22 06:03:45;;;;;;;0.80;0.50;;;3.30;99.90;;;;;;5115945;28;20508;-63
2023/12/22 06:06:15;;;;;;;1.27;1.03;;;3.40;99.90;;;;;;5117526;28;20455;-64
2023/12/22 06:08:42;;;;;;;0.93;0.63;;;3.40;99.90;;;;;;5117736;28;20445;-63
2023/12/22 06:11:09;;;;;;;2.90;0.80;;;3.40;99.90;;;;;;5117650;28;20461;-64
2023/12/22 06:13:35;;;;;;;2.60;0.80;;;3.50;99.90;;;;;;5116920;28;20437;-61
2023/12/22 06:16:02;;;;;;;1.33;0.80;;;3.50;99.90;;;;;;5116952;28;20651;-61
2023/12/22 06:18:29;;;;;;;2.00;0.77;;;3.50;99.90;;;;;;5116937;28;20467;-63
2023/12/22 06:20:56;;;;;;;1.73;1.00;;;3.50;99.90;;;;;;5117553;28;20441;-60
2023/12/22 06:23:24;;;;;;;1.47;1.00;;;3.50;99.90;;;;;;5116736;28;20479;-62
2023/12/22 06:25:51;;;;;;;6.03;1.77;;;3.60;99.90;;;;;;5117325;28;20455;-59
2023/12/22 06:28:19;;;;;;;1.97;0.90;;;3.60;99.90;;;;;;5115114;28;20472;-60
2023/12/22 06:30:47;;;;;;;4.93;0.60;;;3.50;99.90;;;;;;5112535;28;20485;-62
2023/12/22 06:33:14;;;;;;;3.53;1.00;;;3.50;99.90;;;;;;5105481;28;20436;-62
2023/12/22 06:35:41;;;;;;;1.53;0.83;;;3.50;99.90;;;;;;5112764;28;20444;-63
2023/12/22 06:38:11;;;;;;;3.40;0.73;;;3.50;99.90;;;;;;5114721;28;20504;-64
2023/12/22 06:40:39;;;;;;;11.03;1.60;;;3.50;99.90;;;;;;5115284;28;20519;-63
2023/12/22 06:43:08;;;;;;;1.00;0.77;;;3.50;99.90;;;;;;5115363;28;20508;-63
2023/12/22 06:45:35;;;;;;;1.30;0.77;;;3.50;99.90;;;;;;5115226;28;20460;-64
2023/12/22 06:48:01;;;;;;;2.20;0.80;;;3.60;99.90;;;;;;5116462;28;20513;-60
2023/12/22 06:50:28;;;;;;;1.30;0.80;;;3.50;99.90;;;;;;5117113;28;20461;-63
2023/12/22 06:52:55;;;;;;;10.97;1.13;;;3.40;99.90;;;;;;5116790;28;20448;-62
2023/12/22 06:55:22;;;;;;;4.10;0.70;;;3.40;99.90;;;;;;5114484;28;21452;-62
2023/12/22 06:57:50;;;;;;;1.10;0.67;;;3.30;99.90;;;;;;5111704;28;20441;-62
2023/12/22 07:00:18;;;;;;;1.63;0.70;;;3.20;99.90;;;;;;5113490;28;20496;-62
2023/12/22 07:02:45;;;;;;;2.60;0.80;;;3.30;99.90;;;;;;5113830;28;20485;-63
2023/12/22 07:05:30;;;;;;;7.23;3.13;;;3.30;99.90;;;;;;5116124;28;20429;-62
2023/12/22 07:08:00;;;;;;;1.10;0.73;;;3.30;99.90;;;;;;5112083;28;20454;-62
2023/12/22 07:10:27;;;;;;;3.87;0.70;;;3.40;99.90;;;;;;5116536;28;20451;-60
2023/12/22 07:12:55;;;;;;;3.90;1.30;;;3.40;99.90;;;;;;5116563;28;20471;-62
2023/12/22 07:15:22;;;;;;;5.87;1.17;;;3.40;99.90;;;;;;5116595;28;20457;-63
2023/12/22 07:17:49;;;;;;;3.43;0.80;;;3.50;99.90;;;;;;5113739;28;20443;-64
2023/12/22 07:20:16;;;;;;;1.50;0.83;;;3.50;99.90;;;;;;5116076;28;20440;-61
2023/12/22 07:22:47;;;;;;;1.60;0.87;;;3.50;99.90;;;;;;5115834;28;20500;-59
2023/12/22 07:25:14;;;;;;;1.10;0.70;;;3.50;99.90;;;;;;5115767;28;20463;-62
2023/12/22 07:27:40;;;;;;;0.70;0.50;;;3.50;99.90;;;;;;5115394;28;20444;-63
2023/12/22 07:30:15;;;;;;;0.90;0.60;;;3.50;99.90;;;;;;5115570;28;20465;-63
2023/12/22 07:32:43;;;;;;;3.27;1.50;;;3.50;99.90;;;;;;5115349;28;20447;-63
2023/12/22 07:35:11;;;;;;;6.00;1.37;;;3.50;99.90;;;;;;5115513;28;20456;-63
2023/12/22 07:37:37;;;;;;;4.30;1.50;;;3.50;99.90;;;;;;5116319;28;20459;-63
2023/12/22 07:40:05;;;;;;;4.20;1.17;;;3.60;99.90;;;;;;5116514;28;20442;-62
2023/12/22 07:42:32;;;;;;;1.43;0.60;;;3.60;99.90;;;;;;5120265;28;20486;-63
2023/12/22 07:44:59;;;;;;;1.27;0.73;;;3.60;99.90;;;;;;5117565;28;20452;-60
2023/12/22 07:47:27;;;;;;;5.13;0.90;;;3.70;99.90;;;;;;5115683;28;20476;-58
2023/12/22 07:49:54;;;;;;;0.80;0.50;;;3.70;99.90;;;;;;5114489;28;20464;-62
2023/12/22 07:52:21;;;;;;;3.93;1.63;;;3.70;99.90;;;;;;5113672;28;20469;-63
2023/12/22 07:54:48;;;;;;;0.90;0.70;;;3.80;99.90;;;;;;5115066;28;20444;-59
2023/12/22 07:57:15;;;;;;;9.93;1.40;;;3.80;99.90;;;;;;5115878;28;20492;-60
2023/12/22 07:59:42;;;;;;;1.90;0.87;;;3.80;99.90;;;;;;5116759;28;20449;-59
2023/12/22 08:02:09;;;;;;;1.10;0.60;;;3.90;99.90;;;;;;5116845;28;20470;-62
2023/12/22 08:04:37;;;;;;;1.93;0.70;;;3.90;99.90;;;;;;5117644;28;20448;-61
2023/12/22 08:07:04;;;;;;;1.47;1.00;;;4.00;99.90;;;;;;5116964;28;20436;-61
2023/12/22 08:09:32;;;;;;;1.10;0.70;;;3.90;99.90;;;;;;5115900;28;20472;-63
2023/12/22 08:11:59;;;;;;;7.50;1.47;;;4.00;99.90;;;;;;5115648;28;20444;-63
2023/12/22 08:14:26;;;;;;;1.53;0.90;;;4.00;99.90;;;;;;5114611;28;20472;-64
2023/12/22 08:16:53;;;;;;;1.27;0.77;;;4.00;99.90;;;;;;5113577;28;20461;-57
2023/12/22 08:19:20;;;;;;;2.47;1.00;;;3.90;99.90;;;;;;5113440;28;20538;-64
2023/12/22 08:21:48;;;;;;;3.73;1.77;;;3.90;99.90;;;;;;5116299;28;20429;-62
2023/12/22 08:24:15;;;;;;;0.90;0.60;;;3.80;99.90;;;;;;5115559;28;20475;-61
2023/12/22 08:26:42;;;;;;;0.80;0.70;;;3.80;99.90;;;;;;5116731;28;20434;-63
2023/12/22 08:29:09;;;;;;;0.90;0.60;;;3.70;99.90;;;;;;5115742;28;20455;-62
2023/12/22 08:31:36;;;;;;;1.10;0.60;;;3.80;99.90;;;;;;5116324;28;20502;-61
2023/12/22 08:34:03;;;;;;;2.40;0.77;;;3.80;99.90;;;;;;5116112;28;20429;-63
2023/12/22 08:36:29;;;;;;;3.20;1.27;;;3.80;99.90;;;;;;5115697;28;20507;-63
2023/12/22 08:38:58;;;;;;;2.43;0.80;;;4.00;99.90;;;;;;5112745;28;20444;-63
2023/12/22 08:41:26;;;;;;;1.47;1.23;;;3.70;99.90;;;;;;5108669;28;20457;-64
2023/12/22 08:43:53;;;;;;;1.83;0.60;;;3.70;99.90;;;;;;5104702;28;20477;-62
2023/12/22 08:46:20;;;;;;;1.73;0.90;;;3.70;99.90;;;;;;5104749;28;20480;-63
2023/12/22 08:48:47;;;;;;;5.80;0.77;;;3.70;99.90;;;;;;5099790;28;20515;-63
2023/12/22 08:51:14;;;;;;;3.03;1.10;;;3.70;99.90;;;;;;5098011;28;20559;-63
2023/12/22 08:53:40;;;;;;;2.00;1.37;;;3.70;99.90;;;;;;5097635;28;20461;-63
2023/12/22 08:56:09;;;;;;;3.10;0.90;;;3.70;99.90;;;;;;5097978;28;20445;-63
2023/12/22 08:58:36;;;;;;;3.10;1.40;;;3.70;99.90;;;;;;5098603;28;20468;-64
2023/12/22 09:01:03;;;;;;;3.10;0.60;;;3.80;99.90;;;;;;5100719;28;20508;-64
2023/12/22 09:03:35;;;;;;;2.77;1.70;;;3.80;99.90;;;;;;5103405;28;20861;-62
2023/12/22 09:06:02;;;;;;;5.53;1.50;;;3.80;99.90;;;;;;5102183;28;20457;-62
2023/12/22 09:08:29;;;;;;;4.30;1.40;;;3.80;99.90;;;;;;5099721;28;20489;-63
2023/12/22 09:10:59;;;;;;;2.40;1.37;;;3.80;99.90;;;;;;5094909;28;20472;-62
2023/12/22 09:13:27;;;;;;;6.13;1.80;;;3.90;99.90;;;;;;5094171;28;20440;-63
2023/12/22 09:15:54;;;;;;;4.47;1.00;;;3.90;99.90;;;;;;5111491;28;20496;-62
2023/12/22 09:18:21;;;;;;;4.77;1.53;;;3.90;99.90;;;;;;5111141;28;20485;-60
2023/12/22 09:20:48;;;;;;;0.90;0.50;;;4.00;99.90;;;;;;5112580;28;20472;-60
2023/12/22 09:23:15;;;;;;;4.07;1.17;;;4.00;99.90;;;;;;5116306;28;20468;-59
2023/12/22 09:25:44;;;;;;;1.60;0.90;;;4.10;99.90;;;;;;5116196;28;20435;-61
2023/12/22 09:28:12;;;;;;;3.17;1.30;;;4.10;99.90;;;;;;5116765;28;20438;-60
2023/12/22 09:30:40;;;;;;;5.63;1.80;;;4.10;99.90;;;;;;5116544;28;20439;-61
2023/12/22 09:33:08;;;;;;;2.80;1.07;;;4.20;99.90;;;;;;5115627;28;20521;-59
2023/12/22 09:35:36;;;;;;;4.67;2.00;;;4.30;99.90;;;;;;5115243;28;20455;-61
2023/12/22 09:38:03;;;;;;;1.07;0.97;;;4.20;99.90;;;;;;5115561;28;20495;-59
2023/12/22 09:40:30;;;;;;;2.50;1.30;;;4.30;99.90;;;;;;5116848;28;20464;-62
2023/12/22 09:42:59;;;;;;;6.43;1.83;;;4.30;99.90;;;;;;5119004;28;20476;-59
2023/12/22 09:45:26;;;;;;;0.83;0.60;;;4.40;99.90;;;;;;5119329;28;20464;-60
2023/12/22 09:47:57;;;;;;;4.67;1.90;;;4.40;99.90;;;;;;5118914;28;20449;-61
2023/12/22 09:50:24;;;;;;;2.97;2.23;;;4.50;99.90;;;;;;5118809;28;20429;-59
2023/12/22 09:52:53;;;;;;;4.83;0.93;;;4.50;99.90;;;;;;5119444;28;20449;-61
2023/12/22 09:55:22;;;;;;;6.63;1.17;;;4.50;99.90;;;;;;5104633;28;20518;-62
2023/12/22 09:57:50;;;;;;;3.73;1.50;;;4.50;99.90;;;;;;5099831;28;20787;-61
2023/12/22 10:00:19;;;;;;;2.53;1.40;;;4.40;99.90;;;;;;5098047;28;20495;-63
2023/12/22 10:02:46;;;;;;;5.30;1.33;;;4.50;99.90;;;;;;5097214;28;20482;-62
2023/12/22 10:05:15;;;;;;;2.10;1.13;;;4.50;99.90;;;;;;5098086;28;20760;-63
2023/12/22 10:07:43;;;;;;;3.77;1.40;;;4.60;99.90;;;;;;5097417;28;20435;-64
2023/12/22 10:10:11;;;;;;;11.70;1.47;;;4.70;99.90;;;;;;5097148;28;20837;-61
2023/12/22 10:12:39;;;;;;;3.77;1.57;;;4.70;99.90;;;;;;5096950;28;20551;-61
2023/12/22 10:15:09;;;;;;;6.67;1.77;;;4.70;99.90;;;;;;5096892;28;20543;-63
2023/12/22 10:17:36;;;;;;;2.70;1.10;;;5.00;99.90;;;;;;5096999;28;20568;-63
2023/12/22 10:20:04;;;;;;;9.50;2.57;;;5.00;99.90;;;;;;5096661;28;20457;-61
2023/12/22 10:22:32;;;;;;;2.03;1.53;;;5.10;99.90;;;;;;5096517;28;20560;-62
2023/12/22 10:24:59;;;;;;;5.70;1.20;;;5.20;99.90;;;;;;5097125;28;20851;-61
2023/12/22 10:27:26;;;;;;;4.50;1.30;;;5.30;99.90;;;;;;5096807;28;20783;-61
2023/12/22 10:29:56;;;;;;;1.00;0.80;;;5.30;99.90;;;;;;5096782;28;20442;-61
2023/12/22 10:32:23;;;;;;;5.00;1.77;;;5.20;99.90;;;;;;5096440;28;20445;-60
2023/12/22 10:34:52;;;;;;;10.67;1.60;;;5.10;99.90;;;;;;5096482;28;20441;-62
2023/12/22 10:37:21;;;;;;;8.60;1.73;;;5.10;99.90;;;;;;5096596;28;20840;-63
2023/12/22 10:39:53;;;;;;;5.40;1.87;;;5.10;99.90;;;;;;5104647;28;20603;-56
2023/12/22 10:42:22;;;;;;;3.47;1.10;;;5.10;99.90;;;;;;5120452;28;20675;-62
2023/12/22 10:44:49;;;;;;;8.53;2.40;;;5.10;99.90;;;;;;5120084;28;20520;-59
2023/12/22 10:47:17;;;;;;;3.80;1.20;;;5.10;99.90;;;;;;5120412;28;20420;-59
2023/12/22 10:49:47;;;;;;;5.73;2.30;;;5.10;99.90;;;;;;5120178;28;20413;-60
2023/12/22 10:52:20;;;;;;;4.40;1.90;;;5.10;99.90;;;;;;5119892;28;20424;-61
2023/12/22 10:54:49;;;;;;;4.30;0.90;;;5.10;99.90;;;;;;5120055;28;20426;-57
2023/12/22 10:57:19;;;;;;;5.20;1.10;;;5.20;99.90;;;;;;5120055;28;20467;-60
2023/12/22 10:59:47;;;;;;;6.93;1.57;;;5.20;99.90;;;;;;5120228;28;20449;-59
2023/12/22 11:02:18;;;;;;;7.13;1.07;;;5.20;99.90;;;;;;5119810;28;20517;-60
2023/12/22 11:04:58;;;;;;;5.00;1.37;;;5.20;99.90;;;;;;5119998;28;20454;-57
2023/12/22 11:07:25;;;;;;;5.43;1.93;;;5.10;99.90;;;;;;5119953;28;20440;-60
2023/12/22 11:09:57;;;;;;;4.73;0.90;;;5.10;99.90;;;;;;5119964;28;20428;-56
2023/12/22 11:12:25;;;;;;;2.70;1.50;;;5.10;99.90;;;;;;5119784;28;20451;-54
2023/12/22 11:14:56;;;;;;;7.00;1.97;;;5.00;99.90;;;;;;5119839;28;20421;-60
2023/12/22 11:17:23;;;;;;;12.00;2.17;;;5.10;99.90;;;;;;5119810;28;20414;-61
2023/12/22 11:19:51;;;;;;;3.27;1.10;;;5.10;99.90;;;;;;5119669;28;20421;-60
2023/12/22 11:22:19;;;;;;;5.20;1.30;;;5.00;99.90;;;;;;5119692;28;20418;-63
2023/12/22 11:24:48;;;;;;;2.73;2.13;;;5.00;99.90;;;;;;5119517;28;20496;-59
2023/12/22 11:27:19;;;;;;;3.60;0.80;;;5.00;99.90;;;;;;5119567;28;20511;-58
2023/12/22 11:29:48;;;;;;;3.13;0.97;;;5.00;99.90;;;;;;5119549;28;20483;-56
2023/12/22 11:32:16;;;;;;;2.30;1.17;;;5.00;99.90;;;;;;5119475;28;20443;-59
2023/12/22 11:34:44;;;;;;;4.27;1.00;;;5.00;99.90;;;;;;5119195;28;20466;-61
2023/12/22 11:37:13;;;;;;;10.73;1.80;;;5.00;99.90;;;;;;5119364;28;20419;-60
2023/12/22 11:39:40;;;;;;;1.10;0.63;;;5.00;99.90;;;;;;5119343;28;20450;-61
2023/12/22 11:42:10;;;;;;;7.97;1.80;;;5.10;99.90;;;;;;5119254;28;20422;-59
2023/12/22 11:44:38;;;;;;;1.03;0.80;;;5.10;99.90;;;;;;5118866;28;20468;-60
2023/12/22 11:47:07;;;;;;;7.40;1.80;;;5.10;99.90;;;;;;5119089;28;20515;-61
2023/12/22 11:49:35;;;;;;;1.50;1.00;;;5.10;99.90;;;;;;5118953;28;20429;-60
2023/12/22 11:52:11;;;;;;;1.80;0.87;;;5.20;99.90;;;;;;5118882;28;20505;-64
2023/12/22 11:54:50;;;;;;;8.90;1.17;;;5.20;99.90;;;;;;5118211;28;20424;-61
2023/12/22 11:57:37;;;;;;;10.03;3.20;;;5.20;99.90;;;;;;5117394;28;20462;-64
2023/12/22 12:00:08;;;;;;;3.63;1.33;;;5.20;99.90;;;;;;5117380;28;20446;-63
2023/12/22 12:02:37;;;;;;;1.67;1.33;;;5.30;99.90;;;;;;5116608;28;20531;-64
2023/12/22 12:05:05;;;;;;;4.93;1.27;;;5.20;99.90;;;;;;5117377;28;20491;-61
2023/12/22 12:07:49;;;;;;;2.43;1.23;;;5.20;99.90;;;;;;5117701;28;20472;-63
2023/12/22 12:10:49;;;;;;;1.13;1.00;;;5.20;99.90;;;;;;5118137;28;20443;-60
2023/12/22 12:13:22;;;;;;;1.20;1.00;;;5.30;99.90;;;;;;5116741;28;20447;-59
2023/12/22 12:15:51;;;;;;;9.07;2.07;;;5.20;99.90;;;;;;5117050;28;20424;-61
2023/12/22 12:18:23;;;;;;;2.30;1.27;;;5.20;99.90;;;;;;5116024;28;20445;-61
2023/12/22 12:20:50;;;;;;;4.03;1.90;;;5.20;99.90;;;;;;5115545;28;20463;-62
2023/12/22 12:23:17;;;;;;;1.80;0.90;;;5.20;99.90;;;;;;5115484;28;20449;-62
2023/12/22 12:25:44;;;;;;;6.10;1.17;;;5.20;99.90;;;;;;5115629;28;20465;-61
2023/12/22 12:28:11;;;;;;;6.93;1.80;;;5.20;99.90;;;;;;5114744;28;20463;-63
2023/12/22 12:30:39;;;;;;;7.83;1.57;;;5.20;99.90;;;;;;5114473;28;20500;-63
2023/12/22 12:33:09;;;;;;;4.23;1.53;;;5.20;99.90;;;;;;5114860;28;20467;-62
2023/12/22 12:35:36;;;;;;;1.50;0.97;;;5.20;99.90;;;;;;5115567;28;20449;-61
2023/12/22 12:38:04;;;;;;;4.53;1.53;;;5.10;99.90;;;;;;5115946;28;20445;-63
2023/12/22 12:40:34;;;;;;;1.93;0.90;;;5.10;99.90;;;;;;5112191;28;20444;-63
2023/12/22 12:43:02;;;;;;;9.73;1.83;;;5.10;99.90;;;;;;5107664;28;20513;-62
2023/12/22 12:45:34;;;;;;;1.93;1.30;;;5.10;99.90;;;;;;5100198;28;20567;-62
2023/12/22 12:48:02;;;;;;;11.57;1.63;;;5.20;99.90;;;;;;5098580;28;20523;-63
2023/12/22 12:50:31;;;;;;;3.97;1.20;;;5.20;99.90;;;;;;5099862;28;21001;-63
2023/12/22 12:52:58;;;;;;;5.00;2.07;;;5.10;99.90;;;;;;5094372;28;20466;-63
2023/12/22 12:55:26;;;;;;;5.27;1.40;;;5.10;99.90;;;;;;5094220;28;20450;-64
2023/12/22 12:57:53;;;;;;;10.43;1.97;;;5.10;99.90;;;;;;5094192;28;20480;-64
2023/12/22 13:00:25;;;;;;;3.50;1.20;;;5.10;99.90;;;;;;5093956;28;20448;-62
2023/12/22 13:02:55;;;;;;;2.17;1.57;;;5.10;99.90;;;;;;5094282;28;20436;-61